Aeroporto :
LOGIN :

Iscrizione | Disclaimer

   EN    FR    IT 

 










Sommario :    VFR   VFR Marginale   IFR   IFR Intensivo   IFR Molto Intensivo
Visibilità : 
Base nubi : 
>= 8 km
>= 3000ft
5 / 8 km
1000 / 3000 ft
1500m / 5 km
500 / 1000 ft
800 / 1500m
200 / 500 ft
< 800m
< 200 ft
Simboli :   Temporali  Nebbia  Neve Forte  Precipitazioni Forti  Vento > 20 kt
SIGMETs :   Varie  Temporali  Ghiacco  Turbolenza  Onda orograficha  Ceneri Vulcaniche







- Altitudine del aeroporto : 17 ft
- Codice IATA : CPH


EKCH - København - Kastrup (Copenhagen)

ULTIMO METAR :
  • 210120Z 23009KT 3000 -RA FEW005 BKN007 06/06 Q1017 TEMPO 2000 BKN003

METARs OBSOLETI :
  • 210050Z 23009KT 3000 -RA BKN007 06/06 Q1017 TEMPO 2000 BKN003
  • 210020Z 22008KT 2500 -RA SCT003 BKN005 06/06 Q1018 TEMPO 4000 BKN003
  • 202350Z 22007KT 2500 -RA BKN003 BKN005 06/06 Q1018 TEMPO 4000 BKN005
  • 202320Z 22007KT 2500 -RA BKN003 BKN005 06/06 Q1018 TEMPO 4000 BKN005
  • 202250Z 20006KT 170V250 2500 -RA BKN003 06/05 Q1018 TEMPO 4000 BKN005

TAF TAF EKCH
Valido dal 21 a 00 ore il 22 a 00 ore UTC


202302Z 2100/2124 24010KT 4000 -RADZ BKN008
TEMPO 2100/2116 2500 BR BKN003
BECMG 2116/2118 30008KT 1500 BR
TEMPO 2118/2124 1200 BR BKN001
Nessun NOTAM noto per questo aeroporto.



MetMap, La meteo Aeronautica in un colpo d'occhio ! - Copyright ORBIFLY Dicembre 2007 - Disclaimer

ORBIFLY MET'MAP TEAM :

Programmazione e sviluppo : Alexandra Zaïnal
Concezione e sviluppo : Baudouin d'Aumeries
Co-Programmazione e sviluppo : Marc-Olivier Méhu
Supporto tecnico e logistico : Manuel Goepfert
Aiuto per la traduzione : Arnaldo La Scala

Contatto : metmap@orbifly.com




FONTI E CREDITI :

   NOAA